Time;durP1;ratioP1;P1;durP2;ratioP2;P2;SDS_P1;SDS_P2;PMS_P1;PMS_P2;Temp;Humidity;BMP_temperature;BMP_pressure;BME280_temperature;BME280_humidity;BME280_pressure;Samples;Min_cycle;Max_cycle;Signal;HPM_P1;HPM_P2
2023/11/30 00:00:03;;;;;;;64.50;25.80;;;;;;;-3.75;76.45;99113.59;129585;1265;186295;-81
2023/11/30 00:03:10;;;;;;;61.90;26.20;;;;;;;-3.69;76.79;99113.21;130037;1266;97988;-81
2023/11/30 00:06:16;;;;;;;62.80;25.70;;;;;;;-3.63;76.45;99110.23;130014;1268;98058;-81
2023/11/30 00:09:22;;;;;;;66.80;26.90;;;;;;;-3.58;76.59;99107.33;129979;1268;99137;-79
2023/11/30 00:12:27;;;;;;;61.80;27.10;;;;;;;-3.53;76.74;99102.01;129746;1268;99166;-81
2023/11/30 00:15:33;;;;;;;64.60;26.10;;;;;;;-3.51;76.73;99098.45;130003;1265;98812;-82
2023/11/30 00:18:38;;;;;;;67.60;27.60;;;;;;;-3.51;76.80;99097.71;130065;1266;98993;-80
2023/11/30 00:21:44;;;;;;;67.20;28.20;;;;;;;-3.49;76.82;99096.91;129984;1268;97987;-81
2023/11/30 00:24:50;;;;;;;62.70;27.20;;;;;;;-3.48;76.67;99095.11;129986;1263;98781;-81
2023/11/30 00:27:55;;;;;;;66.50;27.30;;;;;;;-3.47;76.95;99095.77;129984;1265;98720;-82
2023/11/30 00:31:01;;;;;;;57.60;24.50;;;;;;;-3.46;76.77;99092.22;129984;1266;98051;-81
2023/11/30 00:34:06;;;;;;;57.70;25.90;;;;;;;-3.51;76.68;99096.70;130024;1268;98754;-81
2023/11/30 00:37:12;;;;;;;55.40;24.70;;;;;;;-3.56;76.63;99098.34;130051;1268;101460;-81
2023/11/30 00:40:18;;;;;;;57.70;25.10;;;;;;;-3.57;76.99;99097.23;129980;1265;97998;-81
2023/11/30 00:43:25;;;;;;;58.90;25.10;;;;;;;-3.58;76.79;99098.83;129945;1268;99209;-81
2023/11/30 00:46:31;;;;;;;49.70;22.10;;;;;;;-3.60;77.10;99092.31;129970;1265;98060;-81
2023/11/30 00:49:36;;;;;;;53.50;22.20;;;;;;;-3.59;76.98;99093.63;130064;1268;98084;-81
2023/11/30 00:52:42;;;;;;;49.20;20.80;;;;;;;-3.56;77.05;99094.16;129978;1265;98089;-81
2023/11/30 00:55:48;;;;;;;51.00;21.20;;;;;;;-3.47;77.17;99092.30;130254;1270;99251;-82
2023/11/30 00:58:53;;;;;;;49.40;21.00;;;;;;;-3.40;76.87;99094.81;129949;1266;98084;-82
2023/11/30 01:01:59;;;;;;;53.70;22.60;;;;;;;-3.34;76.86;99093.91;130032;1279;98039;-82
2023/11/30 01:05:04;;;;;;;56.60;23.10;;;;;;;-3.30;77.14;99088.63;130033;1268;97982;-81
2023/11/30 01:08:12;;;;;;;54.90;23.80;;;;;;;-3.27;77.23;99086.52;130007;1265;98025;-81
2023/11/30 01:11:17;;;;;;;55.00;23.30;;;;;;;-3.26;77.16;99085.03;130056;1263;99049;-81
2023/11/30 01:14:23;;;;;;;55.90;23.00;;;;;;;-3.27;76.72;99082.50;129980;1268;99131;-80
2023/11/30 01:17:28;;;;;;;54.70;22.50;;;;;;;-3.30;76.92;99079.41;130114;1264;99065;-82
2023/11/30 01:20:34;;;;;;;54.80;23.80;;;;;;;-3.31;77.06;99079.13;130028;1268;99036;-82
2023/11/30 01:23:40;;;;;;;51.90;22.80;;;;;;;-3.31;77.05;99079.50;130049;1266;98579;-82
2023/11/30 01:26:46;;;;;;;53.90;23.50;;;;;;;-3.35;77.01;99086.45;130042;1269;98395;-81
2023/11/30 01:29:52;;;;;;;51.40;23.00;;;;;;;-3.38;77.19;99081.63;129934;1266;99023;-80
2023/11/30 01:32:58;;;;;;;54.70;23.00;;;;;;;-3.41;77.05;99081.98;130005;1264;99285;-81
2023/11/30 01:36:03;;;;;;;46.70;22.00;;;;;;;-3.40;77.44;99085.58;129876;1271;98045;-81
2023/11/30 01:39:09;;;;;;;52.50;21.10;;;;;;;-3.39;77.52;99089.02;130012;1265;98515;-80
2023/11/30 01:42:15;;;;;;;47.30;21.60;;;;;;;-3.37;77.53;99087.30;129775;1267;99141;-81
2023/11/30 01:45:21;;;;;;;47.70;20.40;;;;;;;-3.34;77.78;99085.06;129679;1266;97988;-81
2023/11/30 01:48:26;;;;;;;44.80;20.70;;;;;;;-3.30;77.88;99077.34;129697;1265;97987;-82
2023/11/30 01:51:35;;;;;;;44.70;20.70;;;;;;;-3.22;77.89;99072.66;129729;1269;98136;-81
2023/11/30 01:54:40;;;;;;;47.80;20.50;;;;;;;-3.14;77.71;99069.73;130322;1270;99211;-82
2023/11/30 01:57:46;;;;;;;43.50;18.70;;;;;;;-3.08;77.84;99065.53;129853;1265;98876;-81
2023/11/30 02:00:53;;;;;;;46.30;20.80;;;;;;;-3.02;77.67;99058.52;130070;1268;97967;-81
2023/11/30 02:04:01;;;;;;;48.20;20.40;;;;;;;-2.98;77.83;99056.76;129800;1271;101482;-81
2023/11/30 02:07:06;;;;;;;43.60;21.00;;;;;;;-2.98;77.62;99053.22;129955;1265;99135;-81
2023/11/30 02:10:12;;;;;;;42.40;18.90;;;;;;;-2.96;77.92;99052.08;130207;1268;99129;-81
2023/11/30 02:13:18;;;;;;;44.50;20.50;;;;;;;-2.95;78.09;99055.98;130043;1268;98671;-81
2023/11/30 02:16:23;;;;;;;43.20;19.90;;;;;;;-2.96;77.94;99054.33;129987;1265;98028;-80
2023/11/30 02:19:29;;;;;;;43.50;19.80;;;;;;;-2.96;78.12;99059.70;129951;1268;98208;-82
2023/11/30 02:22:35;;;;;;;45.20;20.00;;;;;;;-2.93;78.29;99063.67;129906;1268;97984;-81
2023/11/30 02:25:41;;;;;;;44.50;20.00;;;;;;;-2.89;78.37;99063.46;129996;1268;97961;-81
2023/11/30 02:28:47;;;;;;;40.80;19.30;;;;;;;-2.86;78.31;99060.27;129917;1271;98818;-82
2023/11/30 02:31:53;;;;;;;41.70;19.90;;;;;;;-2.80;78.54;99063.56;129872;1271;99212;-82
2023/11/30 02:35:00;;;;;;;44.20;20.10;;;;;;;-2.75;78.66;99058.89;129984;1264;99304;-82
2023/11/30 02:38:06;;;;;;;36.10;17.70;;;;;;;-2.70;78.49;99054.61;130030;1270;98085;-81
2023/11/30 02:41:12;;;;;;;41.00;18.40;;;;;;;-2.65;78.80;99053.40;129797;1271;99073;-81
2023/11/30 02:44:18;;;;;;;38.20;18.90;;;;;;;-2.56;78.88;99056.80;129870;1264;98759;-81
2023/11/30 02:47:24;;;;;;;39.00;17.80;;;;;;;-2.44;79.06;99056.89;129920;1268;97972;-80
2023/11/30 02:50:30;;;;;;;41.80;20.20;;;;;;;-2.31;78.82;99062.00;129992;1269;98052;-80
2023/11/30 02:53:36;;;;;;;39.10;19.10;;;;;;;-2.21;78.63;99059.04;130004;1267;97999;-82
2023/11/30 02:56:42;;;;;;;40.00;19.10;;;;;;;-2.12;78.73;99056.40;130140;1268;98043;-81
2023/11/30 02:59:48;;;;;;;42.60;18.50;;;;;;;-2.05;78.60;99052.61;129911;1268;98832;-81
2023/11/30 03:02:54;;;;;;;36.20;19.00;;;;;;;-2.01;78.77;99049.52;130060;1265;98559;-82
2023/11/30 03:05:59;;;;;;;39.00;19.20;;;;;;;-1.98;78.79;99050.39;130067;1271;97964;-81
2023/11/30 03:09:05;;;;;;;35.40;18.70;;;;;;;-1.94;78.91;99049.45;130347;1268;97967;-80
2023/11/30 03:12:11;;;;;;;39.30;19.10;;;;;;;-1.92;78.87;99053.14;129761;1268;99135;-81
2023/11/30 03:15:18;;;;;;;37.10;18.60;;;;;;;-1.89;79.13;99051.56;129764;1268;99195;-78
2023/11/30 03:18:23;;;;;;;33.90;17.70;;;;;;;-1.87;79.18;99049.82;129771;1269;101575;-79
2023/11/30 03:21:29;;;;;;;35.70;19.00;;;;;;;-1.84;79.24;99047.21;129834;1271;98012;-80
2023/11/30 03:24:35;;;;;;;47.70;25.90;;;;;;;-1.83;79.12;99038.75;129772;1268;98845;-78
2023/11/30 03:27:40;;;;;;;39.50;18.60;;;;;;;-1.81;79.65;99034.27;129784;1268;97957;-79
2023/11/30 03:30:46;;;;;;;39.10;18.00;;;;;;;-1.78;79.65;99031.95;129855;1268;99094;-79
2023/11/30 03:33:51;;;;;;;39.60;19.20;;;;;;;-1.70;79.75;99029.01;130055;1264;99170;-81
2023/11/30 03:36:57;;;;;;;37.90;18.50;;;;;;;-1.63;79.72;99024.48;129919;1265;98062;-78
2023/11/30 03:40:03;;;;;;;36.70;18.10;;;;;;;-1.56;79.69;99022.59;129744;1270;98025;-81
2023/11/30 03:43:09;;;;;;;34.50;18.00;;;;;;;-1.50;79.89;99018.16;130346;1265;97973;-78
2023/11/30 03:46:14;;;;;;;35.20;18.20;;;;;;;-1.46;79.82;99017.71;129993;1268;97979;-76
2023/11/30 03:49:20;;;;;;;38.00;18.70;;;;;;;-1.46;79.89;99016.36;129807;1268;97959;-77
2023/11/30 03:52:25;;;;;;;34.50;18.10;;;;;;;-1.50;79.70;99018.70;129816;1266;98059;-76
2023/11/30 03:55:32;;;;;;;34.50;17.70;;;;;;;-1.55;79.66;99018.35;129838;1268;98198;-78
2023/11/30 03:58:37;;;;;;;69.00;29.80;;;;;;;-1.60;79.74;99014.52;129833;1268;98580;-77
2023/11/30 04:01:43;;;;;;;89.60;36.80;;;;;;;-1.65;79.81;99018.84;129709;1270;98088;-78
2023/11/30 04:04:49;;;;;;;44.10;20.90;;;;;;;-1.71;79.74;99013.66;129777;1268;98021;-78
2023/11/30 04:07:54;;;;;;;37.40;19.10;;;;;;;-1.79;79.79;99017.57;129833;1271;99187;-76
2023/11/30 04:11:00;;;;;;;36.40;18.10;;;;;;;-1.84;80.03;99018.56;129787;1270;99136;-78
2023/11/30 04:14:09;;;;;;;37.20;18.90;;;;;;;-1.87;79.98;99018.63;129744;1271;99174;-78
2023/11/30 04:17:17;;;;;;;41.50;18.80;;;;;;;-1.87;80.26;99020.02;129818;1263;98467;-76
2023/11/30 04:20:23;;;;;;;32.90;15.80;;;;;;;-1.82;80.47;99018.80;129919;1265;98326;-77
2023/11/30 04:23:28;;;;;;;34.10;16.00;;;;;;;-1.75;80.14;99019.20;129928;1268;99151;-78
2023/11/30 04:26:34;;;;;;;35.10;16.90;;;;;;;-1.68;80.05;99014.90;130142;1267;98683;-77
2023/11/30 04:29:39;;;;;;;35.60;16.40;;;;;;;-1.64;80.30;99013.52;129881;1268;97970;-76
2023/11/30 04:32:45;;;;;;;31.70;16.90;;;;;;;-1.60;80.16;99023.39;130016;1265;99180;-77
2023/11/30 04:35:51;;;;;;;28.80;16.40;;;;;;;-1.60;80.40;99021.48;130005;1267;98017;-78
2023/11/30 04:38:57;;;;;;;64.80;28.50;;;;;;;-1.63;80.03;99024.11;130062;1267;97986;-78
2023/11/30 04:42:04;;;;;;;39.60;20.70;;;;;;;-1.66;80.30;99027.61;130162;1268;99068;-78
2023/11/30 04:45:11;;;;;;;32.00;17.20;;;;;;;-1.70;80.38;99030.16;129970;1264;97972;-76
2023/11/30 04:48:17;;;;;;;31.90;16.50;;;;;;;-1.76;80.17;99034.62;130129;1269;98666;-77
2023/11/30 04:51:23;;;;;;;36.30;18.10;;;;;;;-1.84;80.38;99031.29;130057;1269;98590;-78
2023/11/30 04:54:28;;;;;;;36.40;20.10;;;;;;;-1.90;80.36;99027.73;129995;1268;99065;-78
2023/11/30 04:57:34;;;;;;;41.10;20.70;;;;;;;-1.94;80.44;99029.42;129997;1269;98436;-78
2023/11/30 05:00:40;;;;;;;33.30;17.40;;;;;;;-1.98;80.59;99025.59;129999;1271;97942;-76
2023/11/30 05:03:45;;;;;;;32.70;15.30;;;;;;;-1.98;80.53;99020.56;130135;1268;98020;-78
2023/11/30 05:06:51;;;;;;;30.30;15.20;;;;;;;-1.93;80.49;99022.02;130076;1268;98868;-77
2023/11/30 05:09:56;;;;;;;41.10;19.50;;;;;;;-1.84;80.75;99025.59;130055;1268;98001;-77
2023/11/30 05:13:02;;;;;;;32.90;16.00;;;;;;;-1.75;80.86;99024.27;130065;1264;97974;-77
2023/11/30 05:16:09;;;;;;;48.50;20.40;;;;;;;-1.66;80.83;99021.01;129895;1269;97971;-77
2023/11/30 05:19:15;;;;;;;39.30;18.60;;;;;;;-1.58;80.73;99018.77;129930;1268;98464;-78
2023/11/30 05:22:20;;;;;;;31.70;16.40;;;;;;;-1.54;80.75;99014.45;129733;1269;99061;-76
2023/11/30 05:25:26;;;;;;;35.60;18.60;;;;;;;-1.53;80.81;99014.20;129816;1279;99027;-77
2023/11/30 05:28:32;;;;;;;35.30;17.00;;;;;;;-1.55;80.83;99009.79;129787;1270;98755;-76
2023/11/30 05:31:37;;;;;;;36.20;18.50;;;;;;;-1.56;80.91;99012.67;129760;1268;97987;-77
2023/11/30 05:34:43;;;;;;;36.30;19.00;;;;;;;-1.59;80.78;99010.96;129735;1269;97997;-75
2023/11/30 05:37:49;;;;;;;34.70;18.60;;;;;;;-1.64;80.72;99015.27;129762;1279;99034;-76
2023/11/30 05:40:54;;;;;;;32.60;17.30;;;;;;;-1.69;80.80;99015.65;129707;1268;97950;-77
2023/11/30 05:44:00;;;;;;;28.10;15.80;;;;;;;-1.75;80.68;99016.23;129838;1265;97984;-78
2023/11/30 05:47:06;;;;;;;32.60;17.70;;;;;;;-1.82;80.79;99019.15;129832;1271;98565;-76
2023/11/30 05:50:13;;;;;;;34.50;18.00;;;;;;;-1.86;80.81;99019.41;129898;1265;98012;-75
2023/11/30 05:53:18;;;;;;;44.40;20.70;;;;;;;-1.86;81.23;99016.48;129736;1269;97984;-76
2023/11/30 05:56:24;;;;;;;31.00;15.40;;;;;;;-1.83;81.08;99017.13;129808;1278;99027;-78
2023/11/30 05:59:29;;;;;;;45.80;18.30;;;;;;;-1.78;81.16;99021.13;129846;1268;99035;-77
2023/11/30 06:02:35;;;;;;;37.30;18.50;;;;;;;-1.72;81.16;99025.30;129764;1271;98056;-77
2023/11/30 06:05:40;;;;;;;44.20;20.80;;;;;;;-1.70;81.12;99029.69;129764;1271;97977;-77
2023/11/30 06:08:47;;;;;;;38.50;18.80;;;;;;;-1.69;81.15;99033.27;129817;1271;97977;-76
2023/11/30 06:11:52;;;;;;;38.10;18.90;;;;;;;-1.66;81.15;99033.41;129863;1270;98085;-77
2023/11/30 06:14:58;;;;;;;32.60;16.80;;;;;;;-1.63;81.32;99035.95;129802;1270;97984;-76
2023/11/30 06:18:03;;;;;;;29.50;16.10;;;;;;;-1.59;81.48;99035.20;129770;1269;97973;-76
2023/11/30 06:21:11;;;;;;;30.80;16.40;;;;;;;-1.58;81.48;99034.45;129653;1271;98010;-77
2023/11/30 06:24:16;;;;;;;34.70;17.60;;;;;;;-1.54;81.75;99034.02;129861;1277;101331;-76
2023/11/30 06:27:22;;;;;;;31.00;16.90;;;;;;;-1.51;81.91;99033.60;129885;1270;97970;-80
2023/11/30 06:30:28;;;;;;;33.40;17.90;;;;;;;-1.50;81.87;99034.36;129898;1277;99183;-77
2023/11/30 06:33:33;;;;;;;32.90;17.30;;;;;;;-1.45;81.75;99034.94;129829;1269;98042;-76
2023/11/30 06:36:39;;;;;;;59.90;26.20;;;;;;;-1.40;81.89;99035.30;129789;1279;99144;-77
2023/11/30 06:39:44;;;;;;;48.70;23.50;;;;;;;-1.31;81.85;99034.45;129803;1270;98815;-76
2023/11/30 06:42:50;;;;;;;44.60;20.10;;;;;;;-1.20;82.01;99039.23;129743;1269;98049;-77
2023/11/30 06:45:55;;;;;;;50.20;24.00;;;;;;;-1.09;81.99;99037.13;129839;1268;99051;-76
2023/11/30 06:49:00;;;;;;;130.40;49.60;;;;;;;-1.00;81.88;99040.50;129880;1263;98043;-76
2023/11/30 06:52:07;;;;;;;87.50;37.00;;;;;;;-0.95;81.85;99040.50;129867;1271;97975;-76
2023/11/30 06:55:12;;;;;;;86.20;35.50;;;;;;;-0.93;81.80;99043.69;129860;1264;98072;-77
2023/11/30 06:58:18;;;;;;;140.90;50.00;;;;;;;-0.93;81.78;99046.80;129855;1272;99145;-77
2023/11/30 07:01:27;;;;;;;60.50;25.80;;;;;;;-0.96;81.85;99048.20;129799;1267;98056;-77
2023/11/30 07:04:32;;;;;;;36.50;18.60;;;;;;;-1.00;81.60;99052.72;129848;1264;98170;-75
2023/11/30 07:07:38;;;;;;;35.20;18.70;;;;;;;-1.07;81.77;99052.46;129873;1270;97945;-75
2023/11/30 07:10:44;;;;;;;44.40;20.90;;;;;;;-1.15;81.86;99050.60;129850;1270;99240;-77
2023/11/30 07:13:49;;;;;;;58.20;26.40;;;;;;;-1.23;81.96;99055.66;129960;1269;98751;-77
2023/11/30 07:16:55;;;;;;;55.50;25.20;;;;;;;-1.30;81.85;99060.06;129581;1269;99051;-75
2023/11/30 07:20:00;;;;;;;45.10;22.40;;;;;;;-1.37;81.99;99060.89;129548;1269;98067;-77
2023/11/30 07:23:06;;;;;;;42.80;21.80;;;;;;;-1.39;82.26;99063.64;129683;1271;99051;-76
2023/11/30 07:26:15;;;;;;;28.00;15.60;;;;;;;-1.35;82.32;99072.08;129880;1268;97963;-75
2023/11/30 07:29:21;;;;;;;34.50;18.30;;;;;;;-1.28;82.24;99073.48;129916;1263;99179;-76
2023/11/30 07:32:27;;;;;;;34.50;18.80;;;;;;;-1.20;82.48;99078.17;129936;1279;98109;-76
2023/11/30 07:35:33;;;;;;;38.30;19.90;;;;;;;-1.12;82.57;99081.71;129838;1270;98006;-76
2023/11/30 07:38:38;;;;;;;34.40;19.00;;;;;;;-1.08;82.51;99084.31;129780;1270;99029;-76
2023/11/30 07:41:44;;;;;;;32.80;18.30;;;;;;;-1.08;82.48;99089.77;129905;1264;97968;-75
2023/11/30 07:44:54;;;;;;;32.10;17.50;;;;;;;-1.09;82.54;99090.15;129812;1270;99019;-77
2023/11/30 07:47:59;;;;;;;42.50;21.80;;;;;;;-1.09;82.52;99097.13;129884;1268;98673;-76
2023/11/30 07:51:05;;;;;;;37.90;21.10;;;;;;;-1.11;82.53;99094.83;129913;1267;99205;-77
2023/11/30 07:54:11;;;;;;;46.80;23.60;;;;;;;-1.07;82.64;99096.33;129864;1269;99046;-76
2023/11/30 07:57:17;;;;;;;64.70;30.50;;;;;;;-1.04;83.01;99101.48;129765;1268;97962;-77
2023/11/30 08:00:24;;;;;;;48.80;24.00;;;;;;;-1.02;83.32;99103.29;129885;1270;98751;-76
2023/11/30 08:03:29;;;;;;;57.80;26.40;;;;;;;-0.95;83.43;99105.77;129807;1270;97964;-77
2023/11/30 08:06:35;;;;;;;79.90;33.60;;;;;;;-0.80;83.52;99108.02;130010;1267;99058;-76
2023/11/30 08:09:41;;;;;;;427.00;200.20;;;;;;;-0.62;83.79;99109.01;129993;1269;97991;-76
2023/11/30 08:12:46;;;;;;;81.40;37.30;;;;;;;-0.51;83.51;99108.04;129931;1270;97973;-77
2023/11/30 08:15:52;;;;;;;44.80;22.60;;;;;;;-0.44;83.40;99106.84;129885;1270;97991;-76
2023/11/30 08:18:58;;;;;;;39.80;20.80;;;;;;;-0.42;83.33;99102.27;129877;1270;97990;-76
2023/11/30 08:22:04;;;;;;;34.30;19.70;;;;;;;-0.36;83.28;99109.98;130011;1270;99218;-76
2023/11/30 08:25:11;;;;;;;34.30;18.20;;;;;;;-0.31;83.36;99110.80;129884;1265;97980;-76
2023/11/30 08:28:17;;;;;;;33.40;18.60;;;;;;;-0.27;83.64;99111.16;129978;1264;99173;-76
2023/11/30 08:31:23;;;;;;;29.90;17.10;;;;;;;-0.20;83.56;99110.83;129927;1270;98085;-75
2023/11/30 08:34:28;;;;;;;36.10;19.20;;;;;;;-0.09;83.77;99109.73;129918;1270;99023;-76
2023/11/30 08:37:34;;;;;;;33.60;18.20;;;;;;;-0.01;83.81;99108.91;129985;1265;99250;-77
2023/11/30 08:40:40;;;;;;;35.50;19.60;;;;;;;0.09;83.71;99106.64;129898;1268;99062;-76
2023/11/30 08:43:46;;;;;;;42.90;22.70;;;;;;;0.22;83.74;99105.97;129968;1270;98060;-77
2023/11/30 08:46:51;;;;;;;34.70;21.20;;;;;;;0.34;83.63;99102.10;129916;1272;99167;-77
2023/11/30 08:49:57;;;;;;;32.90;18.40;;;;;;;0.41;83.53;99104.41;129962;1268;97990;-77
2023/11/30 08:53:05;;;;;;;30.70;16.30;;;;;;;0.44;83.46;99102.25;129943;1271;98557;-76
2023/11/30 08:56:12;;;;;;;30.50;17.90;;;;;;;0.45;83.37;99104.95;129942;1264;97983;-76
2023/11/30 08:59:18;;;;;;;30.50;17.60;;;;;;;0.46;83.40;99106.08;130000;1268;98059;-75
2023/11/30 09:02:24;;;;;;;100.40;43.10;;;;;;;0.45;83.29;99098.46;129978;1264;98475;-75
2023/11/30 09:05:29;;;;;;;226.10;84.20;;;;;;;0.42;83.20;99098.00;129956;1280;98043;-75
2023/11/30 09:08:37;;;;;;;79.70;32.20;;;;;;;0.36;83.30;99094.23;129956;1265;97975;-77
2023/11/30 09:11:45;;;;;;;197.80;65.30;;;;;;;0.33;83.41;99087.83;130044;1268;98050;-76
2023/11/30 09:14:50;;;;;;;291.90;86.90;;;;;;;0.32;83.39;99087.90;130126;1270;99148;-76
2023/11/30 09:17:58;;;;;;;80.10;30.10;;;;;;;0.32;83.48;99080.42;129850;1264;99160;-77
2023/11/30 09:21:03;;;;;;;619.40;245.30;;;;;;;0.34;83.45;99078.65;129893;1270;98105;-77
2023/11/30 09:24:10;;;;;;;147.30;52.70;;;;;;;0.40;83.52;99079.11;129902;1270;98064;-76
2023/11/30 09:27:16;;;;;;;184.40;68.60;;;;;;;0.48;83.61;99073.95;130036;1269;98780;-76
2023/11/30 09:30:21;;;;;;;146.10;66.10;;;;;;;0.58;83.53;99071.09;130005;1270;97973;-77
2023/11/30 09:33:29;;;;;;;82.50;43.60;;;;;;;0.64;83.40;99064.29;129917;1267;97984;-77
2023/11/30 09:36:34;;;;;;;53.60;29.00;;;;;;;0.68;83.20;99060.16;130032;1268;97958;-77
2023/11/30 09:39:40;;;;;;;37.50;21.70;;;;;;;0.66;83.15;99059.08;129909;1263;98085;-76
2023/11/30 09:42:47;;;;;;;31.00;17.70;;;;;;;0.65;83.09;99052.69;129807;1270;98025;-77
2023/11/30 09:45:54;;;;;;;26.80;15.30;;;;;;;0.62;83.23;99050.10;129886;1280;99043;-75
2023/11/30 09:49:00;;;;;;;25.10;14.80;;;;;;;0.60;83.20;99046.06;129930;1265;97970;-78
2023/11/30 09:52:07;;;;;;;24.40;15.80;;;;;;;0.58;83.13;99049.39;130059;1263;98943;-76
2023/11/30 09:55:12;;;;;;;32.10;21.90;;;;;;;0.55;83.24;99046.80;130047;1264;99037;-75
2023/11/30 09:58:19;;;;;;;36.90;23.50;;;;;;;0.53;83.18;99042.35;130896;1264;97981;-75
2023/11/30 10:01:24;;;;;;;32.40;18.70;;;;;;;0.56;83.32;99040.40;130149;1267;98659;-76
2023/11/30 10:04:30;;;;;;;27.80;15.50;;;;;;;0.68;83.60;99045.82;129763;1264;97947;-76
2023/11/30 10:07:35;;;;;;;29.00;15.20;;;;;;;0.78;83.44;99047.27;129873;1264;101457;-76
2023/11/30 10:10:41;;;;;;;24.70;14.30;;;;;;;0.95;83.57;99043.48;129914;1269;98789;-77
2023/11/30 10:13:46;;;;;;;29.30;17.20;;;;;;;1.08;83.41;99028.98;129917;1269;99211;-75
2023/11/30 10:16:53;;;;;;;42.50;24.30;;;;;;;1.16;83.17;99031.65;129869;1266;98016;-78
2023/11/30 10:19:58;;;;;;;29.20;18.50;;;;;;;1.23;82.95;99031.79;129891;1263;97958;-77
2023/11/30 10:23:12;;;;;;;26.70;16.70;;;;;;;1.31;83.08;99031.49;129849;1267;98006;-77
2023/11/30 10:26:18;;;;;;;25.30;15.20;;;;;;;1.36;82.91;99026.55;129894;1270;98002;-76
2023/11/30 10:29:30;;;;;;;24.10;15.90;;;;;;;1.39;82.83;99029.27;129925;1270;99171;-78
2023/11/30 10:32:39;;;;;;;25.40;15.40;;;;;;;1.44;82.74;99027.85;129931;1264;98602;-76
2023/11/30 10:35:46;;;;;;;24.80;14.90;;;;;;;1.50;82.78;99029.65;129839;1266;98096;-76
2023/11/30 10:38:58;;;;;;;24.80;14.40;;;;;;;1.58;82.58;99027.45;129849;1269;98342;-77
2023/11/30 10:42:09;;;;;;;;;;;;;;;1.58;82.46;99026.90;129999;1266;99043;-76
2023/11/30 10:45:16;;;;;;;48.60;23.20;;;;;;;1.60;82.57;99029.20;129967;1264;98634;-77
2023/11/30 10:48:25;;;;;;;107.00;40.20;;;;;;;1.65;82.40;99024.73;129990;1264;98014;-76
2023/11/30 10:51:31;;;;;;;226.20;71.70;;;;;;;1.73;82.23;99025.66;129912;1269;97971;-77
2023/11/30 10:54:43;;;;;;;405.90;121.10;;;;;;;1.79;81.97;99027.06;130015;1269;98758;-76
2023/11/30 10:57:49;;;;;;;62.80;25.00;;;;;;;1.81;82.12;99025.69;129961;1264;98000;-78
2023/11/30 11:01:01;;;;;;;375.80;112.50;;;;;;;1.78;81.89;99026.98;129963;1274;97963;-77
2023/11/30 11:04:09;;;;;;;402.00;141.60;;;;;;;1.75;81.73;99026.84;129860;1265;97966;-77
2023/11/30 11:07:17;;;;;;;397.70;151.10;;;;;;;1.73;81.88;99030.41;129752;1264;98683;-77
2023/11/30 11:10:26;;;;;;;127.00;57.30;;;;;;;1.75;81.80;99030.04;129852;1270;98045;-77
2023/11/30 11:13:34;;;;;;;63.40;28.90;;;;;;;1.79;82.00;99036.58;130008;1265;97974;-76
2023/11/30 11:16:41;;;;;;;233.80;115.70;;;;;;;1.87;81.90;99037.27;129890;1269;99163;-76
2023/11/30 11:19:47;;;;;;;74.20;36.80;;;;;;;1.89;81.72;99039.94;129970;1267;97973;-78
2023/11/30 11:22:56;;;;;;;49.50;26.80;;;;;;;1.85;81.63;99042.70;129933;1268;98026;-80
2023/11/30 11:26:03;;;;;;;35.80;21.80;;;;;;;1.78;81.45;99039.98;130216;1264;98005;-78
2023/11/30 11:29:09;;;;;;;32.00;18.50;;;;;;;1.71;81.67;99042.77;130408;1263;97974;-78
2023/11/30 11:32:16;;;;;;;39.40;25.00;;;;;;;1.68;81.59;99039.20;130148;1264;99052;-77
2023/11/30 11:35:22;;;;;;;499.30;233.00;;;;;;;1.65;81.52;99032.57;130174;1264;97999;-77
2023/11/30 11:38:27;;;;;;;159.90;68.90;;;;;;;1.66;81.62;99030.74;130197;1265;98054;-78
2023/11/30 11:41:33;;;;;;;210.80;94.20;;;;;;;1.74;81.65;99029.20;130241;1267;97967;-79
2023/11/30 11:44:38;;;;;;;46.30;25.90;;;;;;;1.88;81.64;99026.50;130121;1268;97993;-78
2023/11/30 11:47:44;;;;;;;35.60;18.90;;;;;;;2.00;81.49;99024.81;130107;1263;99036;-77
2023/11/30 11:50:59;;;;;;;32.60;20.30;;;;;;;2.06;81.21;99025.85;130153;1264;99154;-78
2023/11/30 11:54:05;;;;;;;28.00;16.90;;;;;;;2.09;81.10;99022.85;130184;1280;98673;-77
2023/11/30 11:57:10;;;;;;;45.30;28.70;;;;;;;2.11;81.05;99019.14;130052;1263;97989;-79
2023/11/30 12:00:17;;;;;;;56.70;34.30;;;;;;;2.11;80.85;99021.79;130183;1263;97983;-77
2023/11/30 12:03:23;;;;;;;195.50;114.90;;;;;;;2.12;80.87;99014.70;130228;1265;97995;-79
2023/11/30 12:06:32;;;;;;;104.70;58.70;;;;;;;2.10;80.57;99019.93;130392;1265;98044;-77
2023/11/30 12:09:38;;;;;;;84.90;48.90;;;;;;;2.06;80.69;99019.34;130379;1268;99148;-77
2023/11/30 12:12:46;;;;;;;54.90;30.80;;;;;;;2.04;80.61;99022.05;130408;1266;97987;-77
2023/11/30 12:15:51;;;;;;;57.70;32.90;;;;;;;2.03;80.76;99020.35;130344;1263;97993;-77
2023/11/30 12:18:57;;;;;;;41.50;22.80;;;;;;;2.06;80.80;99021.64;130120;1268;97976;-77
2023/11/30 12:22:02;;;;;;;111.80;54.50;;;;;;;2.09;80.73;99021.10;133040;1263;97849;-80
2023/11/30 12:25:08;;;;;;;46.80;24.20;;;;;;;2.07;80.46;99011.06;131169;1265;97954;-77
2023/11/30 12:28:14;;;;;;;27.20;17.10;;;;;;;1.99;80.53;99008.58;133279;1264;96120;-78
2023/11/30 12:31:20;;;;;;;25.00;14.80;;;;;;;1.88;80.49;99007.60;134064;1264;95840;-78
2023/11/30 12:34:25;;;;;;;27.80;16.00;;;;;;;1.80;80.57;99008.02;130629;1267;98057;-79
2023/11/30 12:37:31;;;;;;;21.10;13.00;;;;;;;1.77;80.66;99008.27;130164;1268;98471;-77
2023/11/30 12:40:36;;;;;;;70.70;25.80;;;;;;;1.78;80.54;99005.62;130365;1264;98045;-77
2023/11/30 12:43:42;;;;;;;175.80;50.00;;;;;;;1.81;80.66;99005.36;130245;1268;98755;-79
2023/11/30 12:46:48;;;;;;;151.80;46.30;;;;;;;1.87;80.75;99000.92;130219;1267;97960;-77
2023/11/30 12:49:53;;;;;;;81.20;29.50;;;;;;;1.96;80.64;99003.02;129916;1264;97999;-77
2023/11/30 12:52:59;;;;;;;46.20;20.10;;;;;;;2.02;80.48;98998.66;129946;1263;98058;-77
2023/11/30 12:56:05;;;;;;;62.40;26.00;;;;;;;2.06;80.49;98997.60;129979;1267;97956;-75
2023/11/30 12:59:10;;;;;;;31.60;15.80;;;;;;;2.08;80.57;98991.70;129881;1269;98071;-76
2023/11/30 13:02:16;;;;;;;25.90;14.70;;;;;;;2.08;80.55;98988.54;129917;1268;99222;-75
2023/11/30 13:05:22;;;;;;;30.30;16.40;;;;;;;2.05;80.59;98983.66;129887;1268;98069;-77
2023/11/30 13:08:28;;;;;;;34.00;18.00;;;;;;;2.05;80.46;98979.15;129950;1267;97981;-77
2023/11/30 13:11:34;;;;;;;30.30;16.70;;;;;;;2.04;80.40;98975.52;129922;1265;99291;-77
2023/11/30 13:14:40;;;;;;;37.70;19.40;;;;;;;2.04;80.48;98972.25;129982;1268;97964;-77
2023/11/30 13:17:45;;;;;;;117.00;42.60;;;;;;;2.01;80.30;98974.55;129924;1266;98630;-77
2023/11/30 13:20:51;;;;;;;44.70;20.60;;;;;;;1.99;80.41;98974.75;129923;1281;98371;-75
2023/11/30 13:23:57;;;;;;;66.70;29.20;;;;;;;1.98;80.43;98973.08;129892;1268;98055;-76
2023/11/30 13:27:03;;;;;;;67.50;31.80;;;;;;;1.96;80.46;98968.45;129947;1268;99250;-76
2023/11/30 13:30:10;;;;;;;91.00;46.80;;;;;;;1.98;80.38;98964.48;129941;1270;98744;-76
2023/11/30 13:33:17;;;;;;;36.00;21.30;;;;;;;2.03;80.44;98960.55;129900;1268;97971;-76
2023/11/30 13:36:22;;;;;;;30.90;18.80;;;;;;;2.09;80.31;98954.94;129952;1268;98033;-75
2023/11/30 13:39:28;;;;;;;33.00;19.20;;;;;;;2.16;80.38;98954.00;129969;1268;97994;-76
2023/11/30 13:42:34;;;;;;;29.00;16.80;;;;;;;2.23;80.08;98949.73;129879;1268;98015;-76
2023/11/30 13:45:40;;;;;;;121.50;75.30;;;;;;;2.26;80.14;98952.79;129906;1268;98581;-76
2023/11/30 13:48:45;;;;;;;69.50;41.80;;;;;;;2.27;80.02;98953.94;129935;1264;98017;-76
2023/11/30 13:51:51;;;;;;;35.60;22.10;;;;;;;2.29;79.88;98955.16;129849;1269;98367;-76
2023/11/30 13:54:58;;;;;;;32.90;17.80;;;;;;;2.28;79.86;98952.29;129875;1265;101361;-77
2023/11/30 13:58:03;;;;;;;30.30;17.20;;;;;;;2.23;79.86;98951.26;129957;1264;99043;-76
2023/11/30 14:01:10;;;;;;;27.00;16.20;;;;;;;2.15;79.64;98952.89;129940;1264;98688;-78
2023/11/30 14:04:16;;;;;;;28.80;16.90;;;;;;;2.01;79.64;98959.15;129805;1268;99129;-77
2023/11/30 14:07:21;;;;;;;31.30;17.90;;;;;;;1.86;79.64;98959.55;129956;1265;97974;-77